createdAt,value
2023-03-17T00:01:54.554Z,71.33
2023-03-17T00:04:24.573Z,71.55
2023-03-17T00:06:54.456Z,71.54
2023-03-17T00:09:23.607Z,71.50
2023-03-17T00:11:52.859Z,71.46
2023-03-17T00:14:22.211Z,71.55
2023-03-17T00:16:52.695Z,71.52
2023-03-17T00:19:26.470Z,71.41
2023-03-17T00:21:55.496Z,71.36
2023-03-17T00:24:25.282Z,70.96
2023-03-17T00:26:53.933Z,71.08
2023-03-17T00:29:22.801Z,71.10
2023-03-17T00:31:52.555Z,71.05
2023-03-17T00:34:24.518Z,70.95
2023-03-17T00:36:53.790Z,70.67
2023-03-17T00:39:25.062Z,70.77
2023-03-17T00:41:56.273Z,71.31
2023-03-17T00:44:25.053Z,71.49
2023-03-17T00:46:57.268Z,71.65
2023-03-17T00:49:25.708Z,71.70
2023-03-17T00:51:54.844Z,71.72
2023-03-17T00:54:23.928Z,71.98
2023-03-17T00:56:52.782Z,72.10
2023-03-17T00:59:27.238Z,72.04
2023-03-17T01:01:56.086Z,72.26
2023-03-17T01:04:25.015Z,72.48
2023-03-17T01:06:54.198Z,72.67
2023-03-17T01:09:27.093Z,72.88
2023-03-17T01:11:56.325Z,72.95
2023-03-17T01:14:25.209Z,72.97
2023-03-17T01:16:54.512Z,73.18
2023-03-17T01:19:23.566Z,73.41
2023-03-17T01:21:52.334Z,73.74
2023-03-17T01:24:21.064Z,73.87
2023-03-17T01:26:50.315Z,73.73
2023-03-17T01:29:19.180Z,73.69
2023-03-17T01:31:48.070Z,73.52
2023-03-17T01:34:17.272Z,73.47
2023-03-17T01:36:46.772Z,73.33
2023-03-17T01:39:16.188Z,73.24
2023-03-17T01:41:45.011Z,73.29
2023-03-17T01:44:16.911Z,73.31
2023-03-17T01:46:46.646Z,73.44
2023-03-17T01:49:20.572Z,73.21
2023-03-17T01:51:58.064Z,73.02
2023-03-17T01:54:34.458Z,72.96
2023-03-17T01:57:08.718Z,73.16
2023-03-17T01:59:43.523Z,72.99
2023-03-17T02:02:17.356Z,72.76
2023-03-17T02:04:46.175Z,72.79
2023-03-17T02:07:15.156Z,72.49
2023-03-17T02:09:44.137Z,72.29
2023-03-17T02:12:14.590Z,72.22
2023-03-17T02:14:44.090Z,72.35
2023-03-17T02:17:14.078Z,72.64
2023-03-17T02:19:44.552Z,72.41
2023-03-17T02:22:13.621Z,72.34
2023-03-17T02:24:48.621Z,72.29
2023-03-17T02:27:20.687Z,72.27
2023-03-17T02:29:50.315Z,72.39
2023-03-17T02:32:20.196Z,72.49
2023-03-17T02:34:50.384Z,72.70
2023-03-17T02:37:19.974Z,72.78
2023-03-17T02:39:48.590Z,72.69
2023-03-17T02:42:17.250Z,72.63
2023-03-17T02:44:45.860Z,72.57
2023-03-17T02:47:15.172Z,72.55
2023-03-17T02:49:44.506Z,72.49
2023-03-17T02:52:13.188Z,72.33
2023-03-17T02:54:42.098Z,72.18
2023-03-17T02:57:11.211Z,71.93
2023-03-17T02:59:39.936Z,71.60
2023-03-17T03:02:09.516Z,71.43
2023-03-17T03:04:38.350Z,71.21
2023-03-17T03:07:07.359Z,71.20
2023-03-17T03:09:36.249Z,71.22
2023-03-17T03:12:09.291Z,70.87
2023-03-17T03:14:38.058Z,70.77
2023-03-17T03:17:06.845Z,70.62
2023-03-17T03:19:35.621Z,70.43
2023-03-17T03:22:04.262Z,70.24
2023-03-17T03:24:32.881Z,70.50
2023-03-17T03:27:01.636Z,70.71
2023-03-17T03:29:30.663Z,70.62
2023-03-17T03:31:59.315Z,70.75
2023-03-17T03:34:28.488Z,70.83
2023-03-17T03:36:57.410Z,70.96
2023-03-17T03:39:26.387Z,71.14
2023-03-17T03:41:56.733Z,71.11
2023-03-17T03:44:25.678Z,71.17
2023-03-17T03:46:54.345Z,71.23
2023-03-17T03:49:23.911Z,71.43
2023-03-17T03:51:54.017Z,71.70
2023-03-17T03:54:22.791Z,72.08
2023-03-17T03:56:51.794Z,72.54
2023-03-17T04:40:44.878Z,72.46
2023-03-17T04:43:13.646Z,72.66
2023-03-17T04:45:42.359Z,72.72
2023-03-17T04:48:11.070Z,72.58
2023-03-17T04:50:39.742Z,72.42
2023-03-17T04:53:08.910Z,72.54
2023-03-17T04:55:37.569Z,72.52
2023-03-17T04:58:06.217Z,72.56
2023-03-17T05:00:38.191Z,72.74
2023-03-17T05:03:23.845Z,72.83
2023-03-17T05:05:54.982Z,72.88
2023-03-17T05:08:23.536Z,72.90
2023-03-17T05:10:52.221Z,72.74
2023-03-17T05:13:21.059Z,72.84
2023-03-17T05:15:51.146Z,73.08
2023-03-17T05:18:23.355Z,73.22
2023-03-17T05:20:51.219Z,73.25
2023-03-17T05:23:21.664Z,73.27
2023-03-17T05:25:50.400Z,72.79
2023-03-17T05:28:20.221Z,72.16
2023-03-17T05:30:50.145Z,71.84
2023-03-17T05:33:19.525Z,71.87
2023-03-17T05:35:48.225Z,71.32
2023-03-17T05:38:17.261Z,70.70
2023-03-17T05:40:49.009Z,70.58
2023-03-17T05:43:18.063Z,69.87
2023-03-17T05:45:47.416Z,69.27
2023-03-17T05:48:16.590Z,68.39
2023-03-17T05:50:45.377Z,65.86
2023-03-17T05:53:14.403Z,64.20
2023-03-17T05:55:43.180Z,62.39
2023-03-17T05:58:12.238Z,61.68
2023-03-17T06:00:41.252Z,62.00
2023-03-17T06:03:10.375Z,61.60
2023-03-17T06:05:39.314Z,61.69
2023-03-17T06:08:08.206Z,61.50
2023-03-17T06:10:37.010Z,60.93
2023-03-17T06:13:05.647Z,60.38
2023-03-17T06:15:36.360Z,60.87
2023-03-17T06:18:05.796Z,60.71
2023-03-17T06:20:34.772Z,59.74
2023-03-17T06:23:06.869Z,58.37
2023-03-17T06:25:35.144Z,57.83
2023-03-17T06:28:04.819Z,56.78
2023-03-17T06:30:35.613Z,56.26
2023-03-17T06:33:06.234Z,55.77
2023-03-17T06:35:35.536Z,54.34
2023-03-17T06:38:04.906Z,53.99
2023-03-17T06:40:33.750Z,52.94
2023-03-17T06:43:02.924Z,51.99
2023-03-17T06:45:32.670Z,50.71
2023-03-17T06:48:03.986Z,50.43
2023-03-17T06:50:32.669Z,49.66
2023-03-17T06:53:01.290Z,48.58
2023-03-17T06:55:31.383Z,48.04
2023-03-17T06:58:01.359Z,48.14
2023-03-17T07:00:30.815Z,47.58
2023-03-17T07:02:59.419Z,47.35
2023-03-17T07:05:28.258Z,46.89
2023-03-17T07:07:58.698Z,45.87
2023-03-17T07:10:27.591Z,45.66
2023-03-17T07:12:58.426Z,45.10
2023-03-17T07:15:27.110Z,44.13
2023-03-17T07:17:56.103Z,43.76
2023-03-17T07:20:24.717Z,43.70
2023-03-17T07:22:53.409Z,43.10
2023-03-17T07:25:22.321Z,42.89
2023-03-17T07:27:51.777Z,42.50
2023-03-17T07:30:21.179Z,41.88
2023-03-17T07:32:49.926Z,41.01
2023-03-17T07:35:18.993Z,41.13
2023-03-17T07:37:47.694Z,40.22
2023-03-17T07:40:18.071Z,41.06
2023-03-17T07:42:47.184Z,40.98
2023-03-17T07:45:17.812Z,40.45
2023-03-17T07:47:47.665Z,40.28
2023-03-17T07:50:16.293Z,40.37
2023-03-17T07:52:44.947Z,40.31
2023-03-17T07:55:13.691Z,40.05
2023-03-17T07:57:42.763Z,39.66
2023-03-17T08:00:14.612Z,39.42
2023-03-17T08:02:43.852Z,39.90
2023-03-17T08:05:13.712Z,39.83
2023-03-17T08:07:42.822Z,39.14
2023-03-17T08:10:13.071Z,39.76
2023-03-17T08:12:41.942Z,39.81
2023-03-17T08:15:12.391Z,39.47
2023-03-17T08:17:41.385Z,38.55
2023-03-17T08:20:12.628Z,38.73
2023-03-17T08:22:41.486Z,38.93
2023-03-17T08:25:10.925Z,38.76
2023-03-17T08:27:40.763Z,38.42
2023-03-17T08:30:12.126Z,38.83
2023-03-17T08:32:41.122Z,38.57
2023-03-17T08:35:14.551Z,38.20
2023-03-17T08:37:43.514Z,39.23
2023-03-17T08:40:16.326Z,39.73
2023-03-17T08:42:45.974Z,39.04
2023-03-17T08:45:16.110Z,38.84
2023-03-17T08:47:45.484Z,39.64
2023-03-17T08:50:20.473Z,39.49
2023-03-17T08:52:49.488Z,38.26
2023-03-17T08:55:19.473Z,38.26
2023-03-17T08:57:48.850Z,37.81
2023-03-17T09:00:20.460Z,38.16
2023-03-17T09:02:48.683Z,37.88
2023-03-17T09:05:18.907Z,38.46
2023-03-17T09:07:49.411Z,38.35
2023-03-17T09:10:22.014Z,38.80
2023-03-17T09:12:52.697Z,39.49
2023-03-17T09:15:22.753Z,38.35
2023-03-17T09:17:51.408Z,38.24
2023-03-17T09:20:20.333Z,39.38
2023-03-17T09:22:49.101Z,39.11
2023-03-17T09:25:18.430Z,38.85
2023-03-17T09:27:47.190Z,39.27
2023-03-17T09:30:17.292Z,38.37
2023-03-17T09:32:46.421Z,38.21
2023-03-17T09:35:15.068Z,38.13
2023-03-17T09:37:44.072Z,38.47
2023-03-17T09:40:17.876Z,37.58
2023-03-17T09:42:59.138Z,37.37
2023-03-17T09:45:33.879Z,36.49
2023-03-17T09:48:17.008Z,36.00
2023-03-17T09:50:53.047Z,36.08
2023-03-17T09:53:27.304Z,35.82
2023-03-17T09:55:58.286Z,35.08
2023-03-17T09:58:32.012Z,35.38
2023-03-17T10:01:02.788Z,35.27
2023-03-17T10:03:32.592Z,34.91
2023-03-17T10:06:17.626Z,34.49
2023-03-17T10:08:54.782Z,35.09
2023-03-17T10:11:33.512Z,35.01
2023-03-17T10:14:11.642Z,35.93
2023-03-17T10:16:47.807Z,36.20
2023-03-17T10:19:26.483Z,36.05
2023-03-17T10:22:00.259Z,36.22
2023-03-17T10:24:31.858Z,35.63
2023-03-17T10:27:06.162Z,35.48
2023-03-17T10:29:35.487Z,35.66
2023-03-17T10:32:05.366Z,35.35
2023-03-17T10:34:38.044Z,34.86
2023-03-17T10:37:08.886Z,34.76
2023-03-17T10:39:46.236Z,35.03
2023-03-17T10:42:23.327Z,35.26
2023-03-17T10:44:55.575Z,35.65
2023-03-17T10:47:29.664Z,35.87
2023-03-17T10:50:02.042Z,35.94
2023-03-17T10:52:34.374Z,35.88
2023-03-17T10:55:05.979Z,35.63
2023-03-17T10:57:38.182Z,35.84
2023-03-17T11:00:16.272Z,35.43
2023-03-17T11:02:48.182Z,35.15
2023-03-17T11:05:22.354Z,34.82
2023-03-17T11:07:57.032Z,35.01
2023-03-17T11:10:28.648Z,35.60
2023-03-17T11:12:59.733Z,35.92
2023-03-17T11:15:33.581Z,34.93
2023-03-17T11:18:05.806Z,35.11
2023-03-17T11:20:49.745Z,35.12
2023-03-17T11:23:45.538Z,35.07
2023-03-17T11:26:27.407Z,35.38
2023-03-17T11:29:12.793Z,35.06
2023-03-17T11:31:48.007Z,34.20
2023-03-17T11:34:26.677Z,33.91
2023-03-17T11:37:03.350Z,34.36
2023-03-17T11:39:42.679Z,35.11
2023-03-17T11:42:17.048Z,35.03
2023-03-17T11:45:08.316Z,34.98
2023-03-17T11:47:49.630Z,35.11
2023-03-17T11:50:26.212Z,35.39
2023-03-17T11:53:10.157Z,35.46
2023-03-17T11:55:45.769Z,35.57
2023-03-17T11:58:22.655Z,35.57
2023-03-17T12:00:56.651Z,36.19
2023-03-17T12:03:32.782Z,35.77
2023-03-17T12:06:05.908Z,35.53
2023-03-17T12:08:42.002Z,34.56
2023-03-17T12:11:14.901Z,34.66
2023-03-17T12:13:49.067Z,35.11
2023-03-17T12:16:25.052Z,36.22
2023-03-17T12:19:00.656Z,37.11
2023-03-17T12:21:36.164Z,37.09
2023-03-17T12:24:13.252Z,35.75
2023-03-17T12:26:49.046Z,33.98
2023-03-17T12:29:27.109Z,33.49
2023-03-17T12:32:03.053Z,33.51
2023-03-17T12:34:41.358Z,34.40
2023-03-17T12:37:10.544Z,34.21
2023-03-17T12:39:44.167Z,34.77
2023-03-17T12:42:25.397Z,35.40
2023-03-17T12:45:21.784Z,36.15
2023-03-17T12:48:01.297Z,35.25
2023-03-17T12:50:47.366Z,34.48
2023-03-17T12:53:32.682Z,34.58
2023-03-17T12:56:08.382Z,35.08
2023-03-17T12:58:39.744Z,35.31
2023-03-17T13:01:19.809Z,34.49
2023-03-17T13:04:02.039Z,35.07
2023-03-17T13:06:31.228Z,35.28
2023-03-17T13:09:33.160Z,35.15
2023-03-17T13:12:03.224Z,35.44
2023-03-17T13:14:42.827Z,35.38
2023-03-17T13:17:32.716Z,34.48
2023-03-17T13:20:14.337Z,34.17
2023-03-17T13:23:02.171Z,33.95
2023-03-17T13:25:34.330Z,34.73
2023-03-17T13:28:16.237Z,34.70
2023-03-17T13:31:08.101Z,34.93
2023-03-17T13:33:43.470Z,35.61
2023-03-17T13:36:27.088Z,34.89
2023-03-17T13:39:19.892Z,34.29
2023-03-17T13:42:17.977Z,34.54
2023-03-17T13:45:07.450Z,35.57
2023-03-17T13:47:39.489Z,36.58
2023-03-17T13:50:14.532Z,36.36
2023-03-17T13:52:48.424Z,35.59
2023-03-17T13:56:03.407Z,34.78
2023-03-17T13:58:49.168Z,35.10
2023-03-17T14:01:18.317Z,35.54
2023-03-17T14:03:50.568Z,35.47
2023-03-17T14:06:22.102Z,35.44
2023-03-17T14:08:54.072Z,35.38
2023-03-17T14:11:31.149Z,35.44
2023-03-17T14:14:31.486Z,35.41
2023-03-17T14:17:11.412Z,35.65
2023-03-17T14:19:40.934Z,35.65
2023-03-17T14:22:22.197Z,34.89
2023-03-17T14:24:55.370Z,35.51
2023-03-17T14:27:26.298Z,36.46
2023-03-17T14:29:55.106Z,36.73
2023-03-17T14:32:25.594Z,36.58
2023-03-17T14:34:59.123Z,36.73
2023-03-17T14:37:28.697Z,35.80
2023-03-17T14:39:58.823Z,35.94
2023-03-17T14:42:29.930Z,35.92
2023-03-17T14:45:03.641Z,35.42
2023-03-17T14:47:38.816Z,35.14
2023-03-17T14:50:17.158Z,34.84
2023-03-17T14:52:45.894Z,35.22
2023-03-17T14:55:15.891Z,35.82
2023-03-17T14:57:50.504Z,36.06
2023-03-17T15:00:35.831Z,36.62
2023-03-17T15:03:16.940Z,36.41
2023-03-17T15:05:46.485Z,35.36
2023-03-17T15:08:42.130Z,34.97
2023-03-17T15:11:19.010Z,35.45
2023-03-17T15:13:49.246Z,35.72
2023-03-17T15:16:22.817Z,35.57
2023-03-17T15:19:02.075Z,36.17
2023-03-17T15:21:34.937Z,35.77
2023-03-17T15:24:22.156Z,35.88
2023-03-17T15:26:50.732Z,36.18
2023-03-17T15:29:19.687Z,35.87
2023-03-17T15:31:48.392Z,35.82
2023-03-17T15:34:17.133Z,35.74
2023-03-17T15:36:46.915Z,36.05
2023-03-17T15:39:15.573Z,36.75
2023-03-17T15:41:44.406Z,36.84
2023-03-17T15:44:13.072Z,35.95
2023-03-17T15:46:41.816Z,36.16
2023-03-17T15:49:12.087Z,36.00
2023-03-17T15:51:40.708Z,36.35
2023-03-17T15:54:15.025Z,36.10
2023-03-17T15:56:44.229Z,36.09
2023-03-17T15:59:12.906Z,36.31
2023-03-17T16:01:41.824Z,36.67
2023-03-17T16:04:10.449Z,36.86
2023-03-17T16:06:39.257Z,36.97
2023-03-17T16:09:16.050Z,37.13
2023-03-17T16:11:44.770Z,37.44
2023-03-17T16:14:13.494Z,38.02
2023-03-17T16:16:45.056Z,37.90
2023-03-17T16:19:19.543Z,38.00
2023-03-17T16:21:48.883Z,38.09
2023-03-17T16:24:22.099Z,38.00
2023-03-17T16:26:51.546Z,38.29
2023-03-17T16:29:21.577Z,38.84
2023-03-17T16:31:50.968Z,39.25
2023-03-17T16:34:22.450Z,39.41
2023-03-17T16:36:51.451Z,39.28
2023-03-17T16:39:22.460Z,39.34
2023-03-17T16:41:52.861Z,39.45
2023-03-17T16:44:22.775Z,39.68
2023-03-17T16:46:51.897Z,39.70
2023-03-17T16:49:22.318Z,40.19
2023-03-17T16:51:51.116Z,40.27
2023-03-17T16:54:19.963Z,40.19
2023-03-17T16:56:48.659Z,40.43
2023-03-17T16:59:20.894Z,40.77
2023-03-17T17:01:48.652Z,40.70
2023-03-17T17:04:17.172Z,40.95
2023-03-17T17:06:46.000Z,40.94
2023-03-17T17:09:14.799Z,41.31
2023-03-17T17:11:43.434Z,41.25
2023-03-17T17:14:12.037Z,41.49
2023-03-17T17:16:40.980Z,41.65
2023-03-17T17:19:16.372Z,41.73
2023-03-17T17:21:45.272Z,41.75
2023-03-17T17:24:15.056Z,41.76
2023-03-17T17:26:43.869Z,41.93
2023-03-17T17:29:12.500Z,42.15
2023-03-17T17:31:41.147Z,42.31
2023-03-17T17:34:09.950Z,42.36
2023-03-17T17:36:38.931Z,42.48
2023-03-17T17:39:09.382Z,42.63
2023-03-17T17:41:38.012Z,42.76
2023-03-17T17:44:07.008Z,42.87
2023-03-17T17:46:35.965Z,43.09
2023-03-17T17:49:05.174Z,43.20
2023-03-17T17:51:34.208Z,43.39
2023-03-17T17:54:02.902Z,43.25
2023-03-17T17:56:36.141Z,43.60
2023-03-17T17:59:05.029Z,43.60
2023-03-17T18:01:34.361Z,43.67
2023-03-17T18:04:03.037Z,43.98
2023-03-17T18:06:31.651Z,43.88
2023-03-17T18:09:00.344Z,44.06
2023-03-17T18:11:29.074Z,44.34
2023-03-17T18:13:57.973Z,44.56
2023-03-17T18:16:26.733Z,44.80
2023-03-17T18:18:57.079Z,44.82
2023-03-17T18:21:25.835Z,44.90
2023-03-17T18:23:54.738Z,44.95
2023-03-17T18:26:23.669Z,45.20
2023-03-17T18:28:52.786Z,45.35
2023-03-17T18:31:26.144Z,45.33
2023-03-17T18:33:58.603Z,45.34
2023-03-17T18:36:27.804Z,45.50
2023-03-17T18:38:56.903Z,45.52
2023-03-17T18:41:27.311Z,45.68
2023-03-17T18:43:56.277Z,45.77
2023-03-17T18:46:25.466Z,45.96
2023-03-17T18:48:54.456Z,46.08
2023-03-17T18:51:23.067Z,45.97
2023-03-17T18:53:51.647Z,46.20
2023-03-17T18:56:20.965Z,46.10
2023-03-17T18:58:49.785Z,46.28
2023-03-17T19:01:18.565Z,46.43
2023-03-17T19:03:47.313Z,46.53
2023-03-17T19:06:17.867Z,46.30
2023-03-17T19:08:47.741Z,46.60
2023-03-17T19:11:19.491Z,46.54
2023-03-17T19:13:48.702Z,46.93
2023-03-17T19:16:18.143Z,46.84
2023-03-17T19:18:46.927Z,46.96
2023-03-17T19:21:15.838Z,46.91
2023-03-17T19:23:44.521Z,47.22
2023-03-17T19:26:13.280Z,47.23
2023-03-17T19:28:41.964Z,47.15
2023-03-17T19:31:11.135Z,47.33
2023-03-17T19:33:39.969Z,47.27
2023-03-17T19:36:11.679Z,47.35
2023-03-17T19:38:40.822Z,47.44
2023-03-17T19:41:09.440Z,47.39
2023-03-17T19:43:41.292Z,47.28
2023-03-17T19:46:10.338Z,47.10
2023-03-17T19:48:39.428Z,46.62
2023-03-17T19:51:08.638Z,46.43
2023-03-17T19:53:37.471Z,46.33
2023-03-17T19:56:07.518Z,46.05
2023-03-17T19:58:36.826Z,45.79
2023-03-17T20:01:06.945Z,45.76
2023-03-17T20:03:41.680Z,45.50
2023-03-17T20:06:10.716Z,45.48
2023-03-17T20:08:39.682Z,45.48
2023-03-17T20:11:08.656Z,45.54
2023-03-17T20:13:37.441Z,45.66
2023-03-17T20:16:08.332Z,45.92
2023-03-17T20:18:36.965Z,45.97
2023-03-17T20:21:10.983Z,45.43
2023-03-17T20:23:39.867Z,45.55
2023-03-17T20:26:08.672Z,45.41
2023-03-17T20:28:38.140Z,45.40
2023-03-17T20:31:07.482Z,45.57
2023-03-17T20:33:36.538Z,45.39
2023-03-17T20:36:06.800Z,45.41
2023-03-17T20:38:38.243Z,45.41
2023-03-17T20:41:09.052Z,45.28
2023-03-17T20:43:37.970Z,45.45
2023-03-17T20:46:08.169Z,45.54
2023-03-17T20:48:37.294Z,45.56
2023-03-17T20:51:06.811Z,45.57
2023-03-17T20:53:36.194Z,45.68
2023-03-17T20:56:06.840Z,45.61
2023-03-17T20:58:36.044Z,45.55
2023-03-17T21:01:05.121Z,45.74
2023-03-17T21:03:34.290Z,45.83
2023-03-17T21:06:04.237Z,46.12
2023-03-17T21:08:36.049Z,46.41
2023-03-17T21:11:05.476Z,46.38
2023-03-17T21:13:35.649Z,46.66
2023-03-17T21:16:06.202Z,46.81
2023-03-17T21:18:35.349Z,46.78
2023-03-17T21:21:05.161Z,46.87
2023-03-17T21:23:35.385Z,47.08
2023-03-17T21:26:05.262Z,46.99
2023-03-17T21:28:34.861Z,46.85
2023-03-17T21:31:04.677Z,46.85
2023-03-17T21:33:34.110Z,46.79
2023-03-17T21:36:02.821Z,46.50
2023-03-17T21:38:31.559Z,46.36
2023-03-17T21:41:20.700Z,46.14
2023-03-17T21:43:49.837Z,46.21
2023-03-17T21:46:18.454Z,45.62
2023-03-17T21:48:47.943Z,45.87
2023-03-17T21:51:16.656Z,45.82
2023-03-17T21:53:46.213Z,45.56
2023-03-17T21:56:15.086Z,45.83
2023-03-17T21:58:43.856Z,45.76
2023-03-17T22:01:13.713Z,45.46
2023-03-17T22:03:42.499Z,45.24
2023-03-17T22:06:11.760Z,45.19
2023-03-17T22:08:40.548Z,44.83
2023-03-17T22:11:10.917Z,44.87
2023-03-17T22:13:40.091Z,44.78
2023-03-17T22:16:10.616Z,44.68
2023-03-17T22:18:39.605Z,44.48
2023-03-17T22:21:09.534Z,44.57
2023-03-17T22:23:40.884Z,44.37
2023-03-17T22:26:13.063Z,44.40
2023-03-17T22:28:43.109Z,44.12
2023-03-17T22:31:13.484Z,43.90
2023-03-17T22:33:43.570Z,43.97
2023-03-17T22:36:12.532Z,44.10
2023-03-17T22:38:41.472Z,43.91
2023-03-17T22:41:13.044Z,43.86
2023-03-17T22:43:41.734Z,43.74
2023-03-17T22:46:11.291Z,43.77
2023-03-17T22:48:40.589Z,44.08
2023-03-17T22:51:11.706Z,43.68
2023-03-17T22:53:40.954Z,43.48
2023-03-17T22:56:11.337Z,43.77
2023-03-17T22:58:40.716Z,43.64
2023-03-17T23:01:11.639Z,43.54
2023-03-17T23:03:41.289Z,43.35
2023-03-17T23:06:11.119Z,43.56
2023-03-17T23:08:42.106Z,43.57
2023-03-17T23:11:12.923Z,43.67
2023-03-17T23:13:41.762Z,43.99
2023-03-17T23:16:10.825Z,44.00
2023-03-17T23:18:40.323Z,43.83
2023-03-17T23:21:09.681Z,43.85
2023-03-17T23:23:38.648Z,44.09
2023-03-17T23:26:08.677Z,44.13
2023-03-17T23:28:37.400Z,44.51
2023-03-17T23:31:06.349Z,44.64
2023-03-17T23:33:35.016Z,44.57
2023-03-17T23:36:04.309Z,44.79
2023-03-17T23:38:33.515Z,45.01
2023-03-17T23:41:02.149Z,44.92
2023-03-17T23:43:31.125Z,44.95
2023-03-17T23:46:00.565Z,44.99
2023-03-17T23:48:29.247Z,44.87
2023-03-17T23:51:06.058Z,44.79
2023-03-17T23:53:34.718Z,44.57
2023-03-17T23:56:04.259Z,44.23
2023-03-17T23:58:33.084Z,44.28
